createdAt,value
2023-03-17T00:00:14.197Z,101912.84
2023-03-17T00:01:19.099Z,101917.00
2023-03-17T00:02:22.354Z,101909.97
2023-03-17T00:03:29.745Z,101917.97
2023-03-17T00:04:31.792Z,101915.31
2023-03-17T00:05:38.993Z,101909.22
2023-03-17T00:06:41.485Z,101914.44
2023-03-17T00:07:44.584Z,101903.44
2023-03-17T00:08:46.548Z,101910.19
2023-03-17T00:09:48.339Z,101908.34
2023-03-17T00:10:50.970Z,101911.13
2023-03-17T00:11:53.471Z,101892.22
2023-03-17T00:12:55.805Z,101913.06
2023-03-17T00:13:57.898Z,101913.06
2023-03-17T00:14:59.713Z,101906.00
2023-03-17T00:16:04.064Z,101902.59
2023-03-17T00:17:06.698Z,101903.34
2023-03-17T00:18:18.241Z,101890.41
2023-03-17T00:19:28.406Z,101899.72
2023-03-17T00:20:33.096Z,101889.44
2023-03-17T00:21:35.796Z,101884.25
2023-03-17T00:22:37.600Z,101886.03
2023-03-17T00:23:39.753Z,101899.94
2023-03-17T00:24:42.390Z,101896.41
2023-03-17T00:25:45.482Z,101896.53
2023-03-17T00:26:47.307Z,101888.63
2023-03-17T00:27:50.379Z,101875.00
2023-03-17T00:28:53.252Z,101889.44
2023-03-17T00:29:56.415Z,101893.94
2023-03-17T00:31:02.749Z,101886.03
2023-03-17T00:32:05.169Z,101883.53
2023-03-17T00:33:07.635Z,101890.41
2023-03-17T00:34:15.630Z,101890.50
2023-03-17T00:35:26.781Z,101886.03
2023-03-17T00:36:31.578Z,101887.75
2023-03-17T00:37:33.409Z,101893.06
2023-03-17T00:38:35.168Z,101890.50
2023-03-17T00:39:37.155Z,101882.03
2023-03-17T00:40:39.067Z,101888.88
2023-03-17T00:41:40.872Z,101889.00
2023-03-17T00:42:42.637Z,101884.72
2023-03-17T00:43:45.705Z,101889.06
2023-03-17T00:44:47.576Z,101887.38
2023-03-17T00:45:49.477Z,101889.06
2023-03-17T00:46:51.816Z,101891.75
2023-03-17T00:47:56.187Z,101887.38
2023-03-17T00:48:58.060Z,101889.94
2023-03-17T00:49:59.868Z,101872.75
2023-03-17T00:51:01.705Z,101888.53
2023-03-17T00:52:04.090Z,101890.16
2023-03-17T00:53:10.710Z,101885.78
2023-03-17T00:54:14.212Z,101888.31
2023-03-17T00:55:16.964Z,101892.81
2023-03-17T00:56:21.158Z,101891.94
2023-03-17T00:57:22.957Z,101888.31
2023-03-17T00:58:31.708Z,101891.94
2023-03-17T00:59:42.687Z,101886.53
2023-03-17T01:00:46.124Z,101879.78
2023-03-17T01:01:49.190Z,101891.00
2023-03-17T01:02:53.124Z,101891.94
2023-03-17T01:03:54.935Z,101887.56
2023-03-17T01:05:05.732Z,101887.56
2023-03-17T01:06:12.285Z,101884.91
2023-03-17T01:07:14.384Z,101891.94
2023-03-17T01:08:16.913Z,101888.53
2023-03-17T01:09:20.989Z,101878.09
2023-03-17T01:10:28.377Z,101876.19
2023-03-17T01:11:30.724Z,101884.09
2023-03-17T01:12:33.147Z,101885.03
2023-03-17T01:13:35.194Z,101876.19
2023-03-17T01:14:38.068Z,101871.81
2023-03-17T01:15:42.816Z,101857.47
2023-03-17T01:16:44.999Z,101872.75
2023-03-17T01:17:47.113Z,101878.09
2023-03-17T01:18:49.502Z,101853.78
2023-03-17T01:19:51.325Z,101869.34
2023-03-17T01:20:53.377Z,101869.34
2023-03-17T01:21:55.160Z,101869.47
2023-03-17T01:22:57.246Z,101865.94
2023-03-17T01:24:00.572Z,101865.06
2023-03-17T01:25:03.128Z,101845.88
2023-03-17T01:26:06.689Z,101860.59
2023-03-17T01:27:08.788Z,101865.94
2023-03-17T01:28:18.079Z,101858.91
2023-03-17T01:29:20.702Z,101856.97
2023-03-17T01:30:26.038Z,101858.81
2023-03-17T01:31:27.996Z,101857.94
2023-03-17T01:32:30.013Z,101836.50
2023-03-17T01:33:31.960Z,101854.53
2023-03-17T01:34:35.149Z,101851.94
2023-03-17T01:35:38.437Z,101860.81
2023-03-17T01:36:41.398Z,101857.19
2023-03-17T01:37:43.589Z,101851.00
2023-03-17T01:38:48.141Z,101850.38
2023-03-17T01:39:50.073Z,101842.03
2023-03-17T01:40:54.872Z,101852.81
2023-03-17T01:42:01.423Z,101859.09
2023-03-17T01:43:08.398Z,101855.47
2023-03-17T01:44:18.469Z,101858.22
2023-03-17T01:45:58.914Z,101855.06
2023-03-17T01:47:02.790Z,101854.03
2023-03-17T01:48:04.894Z,101806.19
2023-03-17T01:49:19.481Z,101857.94
2023-03-17T01:50:21.479Z,101849.06
2023-03-17T01:52:14.320Z,101844.81
2023-03-17T01:53:18.164Z,101851.25
2023-03-17T01:54:29.625Z,101836.28
2023-03-17T01:55:31.660Z,101848.16
2023-03-17T01:56:35.243Z,101838.97
2023-03-17T01:57:51.201Z,101846.75
2023-03-17T01:58:55.330Z,101849.28
2023-03-17T02:00:05.809Z,101846.75
2023-03-17T02:01:15.244Z,101840.47
2023-03-17T02:02:22.734Z,101842.66
2023-03-17T02:03:26.134Z,101840.66
2023-03-17T02:04:28.758Z,101837.25
2023-03-17T02:05:32.548Z,101835.53
2023-03-17T02:06:37.025Z,101823.69
2023-03-17T02:07:42.896Z,101824.34
2023-03-17T02:08:44.805Z,101831.38
2023-03-17T02:09:47.392Z,101833.09
2023-03-17T02:10:50.711Z,101834.78
2023-03-17T02:11:52.816Z,101840.13
2023-03-17T02:12:58.582Z,101825.38
2023-03-17T02:14:00.486Z,101840.97
2023-03-17T02:15:02.504Z,101836.59
2023-03-17T02:16:05.789Z,101831.38
2023-03-17T02:17:08.659Z,101833.09
2023-03-17T02:18:13.989Z,101817.69
2023-03-17T02:19:15.768Z,101825.19
2023-03-17T02:20:17.598Z,101822.53
2023-03-17T02:21:40.386Z,101825.84
2023-03-17T02:22:44.153Z,101820.53
2023-03-17T02:23:49.872Z,101815.19
2023-03-17T02:24:58.528Z,101809.22
2023-03-17T02:26:00.649Z,101806.44
2023-03-17T02:27:19.325Z,101818.06
2023-03-17T02:28:30.025Z,101809.00
2023-03-17T02:29:35.029Z,101818.81
2023-03-17T02:30:37.696Z,101822.31
2023-03-17T02:31:39.764Z,101812.63
2023-03-17T02:32:41.541Z,101819.78
2023-03-17T02:33:43.689Z,101818.16
2023-03-17T02:34:47.111Z,101823.59
2023-03-17T02:35:48.990Z,101822.63
2023-03-17T02:36:51.201Z,101819.22
2023-03-17T02:37:53.004Z,101801.72
2023-03-17T02:38:56.773Z,101806.88
2023-03-17T02:39:59.055Z,101807.72
2023-03-17T02:41:01.260Z,101812.19
2023-03-17T02:42:04.754Z,101803.75
2023-03-17T02:43:09.056Z,101804.09
2023-03-17T02:44:11.463Z,101775.91
2023-03-17T02:45:14.398Z,101811.31
2023-03-17T02:46:16.922Z,101763.44
2023-03-17T02:47:19.270Z,101804.28
2023-03-17T02:48:22.866Z,101804.19
2023-03-17T02:49:25.697Z,101804.28
2023-03-17T02:50:29.371Z,101806.13
2023-03-17T02:51:31.640Z,101812.28
2023-03-17T02:52:33.518Z,101804.28
2023-03-17T02:53:35.446Z,101808.78
2023-03-17T02:54:37.235Z,101810.50
2023-03-17T02:55:39.037Z,101803.44
2023-03-17T02:56:40.971Z,101794.69
2023-03-17T02:57:42.836Z,101781.25
2023-03-17T02:58:44.611Z,101795.84
2023-03-17T02:59:46.699Z,101804.38
2023-03-17T03:00:49.804Z,101807.03
2023-03-17T03:01:51.864Z,101800.78
2023-03-17T03:02:53.779Z,101799.06
2023-03-17T03:03:56.069Z,101797.34
2023-03-17T03:04:57.852Z,101805.34
2023-03-17T03:06:02.072Z,101800.00
2023-03-17T03:07:05.017Z,101789.03
2023-03-17T03:08:07.242Z,101796.50
2023-03-17T03:09:10.628Z,101778.38
2023-03-17T03:10:12.609Z,101803.63
2023-03-17T03:11:14.437Z,101798.31
2023-03-17T03:12:16.344Z,101798.31
2023-03-17T03:13:18.160Z,101792.22
2023-03-17T03:14:20.009Z,101786.91
2023-03-17T03:15:21.826Z,101782.44
2023-03-17T03:16:24.589Z,101783.41
2023-03-17T03:17:26.418Z,101773.59
2023-03-17T03:18:28.253Z,101775.41
2023-03-17T03:19:30.324Z,101779.13
2023-03-17T03:20:32.476Z,101777.22
2023-03-17T03:21:34.655Z,101767.44
2023-03-17T03:22:36.601Z,101771.88
2023-03-17T03:23:38.441Z,101769.22
2023-03-17T03:24:40.911Z,101760.41
2023-03-17T03:25:42.820Z,101764.84
2023-03-17T03:26:44.785Z,101757.72
2023-03-17T03:27:46.766Z,101750.78
2023-03-17T03:28:48.539Z,101754.19
2023-03-17T03:29:51.133Z,101757.81
2023-03-17T03:30:52.921Z,101757.81
2023-03-17T03:31:54.992Z,101763.16
2023-03-17T03:32:56.813Z,101756.03
2023-03-17T03:33:58.760Z,101761.44
2023-03-17T03:35:00.571Z,101756.13
2023-03-17T03:36:03.089Z,101756.97
2023-03-17T03:37:05.504Z,101766.75
2023-03-17T03:38:07.942Z,101759.72
2023-03-17T03:39:10.735Z,101748.47
2023-03-17T03:40:13.596Z,101745.69
2023-03-17T03:41:15.509Z,101749.97
2023-03-17T03:42:18.220Z,101749.28
2023-03-17T03:43:23.632Z,101748.25
2023-03-17T03:44:26.297Z,101741.09
2023-03-17T03:45:28.713Z,101715.22
2023-03-17T03:46:30.517Z,101737.59
2023-03-17T03:47:32.346Z,101736.94
2023-03-17T03:48:34.157Z,101751.13
2023-03-17T03:49:35.923Z,101765.06
2023-03-17T03:50:38.106Z,101760.69
2023-03-17T03:51:39.945Z,101759.19
2023-03-17T03:52:42.103Z,101759.00
2023-03-17T03:53:44.076Z,101745.69
2023-03-17T03:54:45.949Z,101735.22
2023-03-17T03:55:47.733Z,101747.50
2023-03-17T03:56:49.535Z,101736.31
2023-03-17T03:57:51.620Z,101746.53
2023-03-17T03:58:53.392Z,101739.06
2023-03-17T03:59:55.178Z,101735.44
2023-03-17T04:00:57.122Z,101740.34
2023-03-17T04:01:58.935Z,101734.94
2023-03-17T04:03:01.572Z,101732.47
2023-03-17T04:04:03.809Z,101727.03
2023-03-17T04:05:07.369Z,101728.94
2023-03-17T04:06:09.232Z,101733.31
2023-03-17T04:07:12.205Z,101736.94
2023-03-17T04:08:14.122Z,101719.75
2023-03-17T04:09:16.188Z,101728.88
2023-03-17T04:10:18.089Z,101725.44
2023-03-17T04:11:19.946Z,101726.28
2023-03-17T04:12:21.825Z,101727.25
2023-03-17T04:13:23.692Z,101725.53
2023-03-17T04:14:26.097Z,101724.03
2023-03-17T04:15:28.077Z,101734.28
2023-03-17T04:16:29.954Z,101737.91
2023-03-17T04:17:31.954Z,101729.91
2023-03-17T04:18:33.808Z,101736.94
2023-03-17T04:19:35.634Z,101737.91
2023-03-17T04:20:38.703Z,101735.22
2023-03-17T04:21:40.499Z,101698.66
2023-03-17T04:22:43.028Z,101741.44
2023-03-17T04:23:46.032Z,101741.44
2023-03-17T04:24:47.888Z,101735.22
2023-03-17T04:25:51.235Z,101731.81
2023-03-17T04:26:53.528Z,101729.91
2023-03-17T04:27:55.349Z,101736.09
2023-03-17T04:28:57.674Z,101728.19
2023-03-17T04:29:59.494Z,101738.84
2023-03-17T04:31:01.601Z,101722.88
2023-03-17T04:32:04.032Z,101733.53
2023-03-17T04:33:06.039Z,101710.84
2023-03-17T04:34:12.629Z,101716.72
2023-03-17T04:35:17.222Z,101704.56
2023-03-17T04:36:20.898Z,101717.56
2023-03-17T04:37:22.745Z,101724.59
2023-03-17T04:38:24.619Z,101697.50
2023-03-17T04:39:27.705Z,101730.03
2023-03-17T04:40:29.739Z,101726.50
2023-03-17T04:41:31.709Z,101726.50
2023-03-17T04:42:33.476Z,101712.84
2023-03-17T04:43:35.383Z,101724.78
2023-03-17T04:44:37.605Z,101723.00
2023-03-17T04:45:39.397Z,101720.53
2023-03-17T04:46:41.987Z,101717.75
2023-03-17T04:47:46.082Z,101711.97
2023-03-17T04:48:47.887Z,101723.97
2023-03-17T04:49:49.730Z,101716.94
2023-03-17T04:50:51.786Z,101716.06
2023-03-17T04:51:53.759Z,101719.47
2023-03-17T04:52:55.873Z,101715.09
2023-03-17T04:53:57.849Z,101717.75
2023-03-17T04:54:59.686Z,101723.09
2023-03-17T04:56:02.071Z,101725.75
2023-03-17T04:57:03.929Z,101724.25
2023-03-17T04:58:05.729Z,101734.03
2023-03-17T04:59:07.799Z,101721.78
2023-03-17T05:00:10.220Z,101717.31
2023-03-17T05:01:12.241Z,101728.41
2023-03-17T05:02:14.263Z,101728.41
2023-03-17T05:03:26.302Z,101719.69
2023-03-17T05:04:32.018Z,101708.72
2023-03-17T05:05:35.178Z,101705.19
2023-03-17T05:06:37.396Z,101710.53
2023-03-17T05:07:39.252Z,101711.59
2023-03-17T05:08:41.195Z,101714.34
2023-03-17T05:09:43.438Z,101709.03
2023-03-17T05:10:45.444Z,101704.88
2023-03-17T05:11:47.490Z,101713.41
2023-03-17T05:12:49.307Z,101696.22
2023-03-17T05:13:51.150Z,101706.03
2023-03-17T05:14:52.930Z,101721.38
2023-03-17T05:15:56.326Z,101709.97
2023-03-17T05:16:58.097Z,101713.41
2023-03-17T05:18:00.022Z,101722.25
2023-03-17T05:19:01.870Z,101719.69
2023-03-17T05:20:04.396Z,101715.22
2023-03-17T05:21:07.779Z,101716.25
2023-03-17T05:22:09.813Z,101717.88
2023-03-17T05:23:11.705Z,101718.72
2023-03-17T05:24:13.561Z,101716.94
2023-03-17T05:25:16.920Z,101721.38
2023-03-17T05:26:18.771Z,101718.72
2023-03-17T05:27:21.539Z,101721.38
2023-03-17T05:28:23.545Z,101716.06
2023-03-17T05:29:25.347Z,101707.31
2023-03-17T05:30:27.290Z,101715.22
2023-03-17T05:31:31.118Z,101712.44
2023-03-17T05:32:33.972Z,101710.72
2023-03-17T05:33:37.194Z,101708.94
2023-03-17T05:34:39.237Z,101708.81
2023-03-17T05:35:41.924Z,101707.13
2023-03-17T05:36:44.773Z,101702.66
2023-03-17T05:37:47.124Z,101707.13
2023-03-17T05:38:48.873Z,101690.06
2023-03-17T05:39:51.072Z,101716.94
2023-03-17T05:40:53.707Z,101714.25
2023-03-17T05:41:56.965Z,101718.50
2023-03-17T05:42:58.922Z,101713.31
2023-03-17T05:44:00.982Z,101702.22
2023-03-17T05:45:02.938Z,101714.16
2023-03-17T05:46:06.036Z,101685.50
2023-03-17T05:47:08.513Z,101703.50
2023-03-17T05:48:12.353Z,101709.03
2023-03-17T05:49:15.447Z,101699.63
2023-03-17T05:50:17.842Z,101711.41
2023-03-17T05:51:20.718Z,101716.72
2023-03-17T05:52:22.774Z,101703.41
2023-03-17T05:53:24.684Z,101700.75
2023-03-17T05:54:26.605Z,101694.75
2023-03-17T05:55:28.461Z,101699.13
2023-03-17T05:56:33.860Z,101709.56
2023-03-17T05:57:36.060Z,101694.97
2023-03-17T05:58:37.830Z,101703.41
2023-03-17T05:59:39.680Z,101708.81
2023-03-17T06:00:42.731Z,101701.78
2023-03-17T06:01:44.980Z,101705.19
2023-03-17T06:02:47.293Z,101698.09
2023-03-17T06:03:50.105Z,101697.97
2023-03-17T06:04:52.204Z,101698.91
2023-03-17T06:05:54.035Z,101694.47
2023-03-17T06:06:55.905Z,101684.13
2023-03-17T06:07:57.774Z,101681.44
2023-03-17T06:09:00.227Z,101689.03
2023-03-17T06:10:03.558Z,101692.44
2023-03-17T06:11:05.504Z,101687.31
2023-03-17T06:12:07.877Z,101682.53
2023-03-17T06:13:09.875Z,101686.69
2023-03-17T06:14:12.154Z,101681.69
2023-03-17T06:15:14.082Z,101691.72
2023-03-17T06:16:16.065Z,101691.78
2023-03-17T06:17:18.410Z,101687.78
2023-03-17T06:18:20.165Z,101677.34
2023-03-17T06:19:22.012Z,101686.50
2023-03-17T06:20:23.815Z,101689.81
2023-03-17T06:21:25.810Z,101694.94
2023-03-17T06:22:27.875Z,101669.13
2023-03-17T06:23:29.719Z,101683.84
2023-03-17T06:24:31.756Z,101666.47
2023-03-17T06:25:35.589Z,101683.31
2023-03-17T06:26:37.649Z,101681.28
2023-03-17T06:27:39.685Z,101671.56
2023-03-17T06:28:41.844Z,101684.28
2023-03-17T06:29:43.630Z,101681.44
2023-03-17T06:30:45.841Z,101683.00
2023-03-17T06:31:50.981Z,101688.88
2023-03-17T06:32:52.781Z,101690.47
2023-03-17T06:33:54.611Z,101678.63
2023-03-17T06:34:56.612Z,101683.75
2023-03-17T06:35:58.945Z,101682.78
2023-03-17T06:37:00.772Z,101669.16
2023-03-17T06:38:03.615Z,101676.06
2023-03-17T06:39:06.254Z,101672.19
2023-03-17T06:40:11.589Z,101662.28
2023-03-17T06:41:13.724Z,101656.22
2023-03-17T06:42:15.848Z,101667.06
2023-03-17T06:43:19.549Z,101667.91
2023-03-17T06:44:21.431Z,101682.75
2023-03-17T06:45:23.331Z,101670.16
2023-03-17T06:46:25.483Z,101662.91
2023-03-17T06:47:27.359Z,101669.81
2023-03-17T06:48:29.221Z,101670.53
2023-03-17T06:49:31.291Z,101653.94
2023-03-17T06:50:33.159Z,101663.19
2023-03-17T06:51:37.332Z,101656.88
2023-03-17T06:52:40.153Z,101662.81
2023-03-17T06:53:42.160Z,101655.69
2023-03-17T06:54:44.670Z,101653.13
2023-03-17T06:55:47.016Z,101652.06
2023-03-17T06:56:48.853Z,101659.75
2023-03-17T06:57:51.470Z,101664.94
2023-03-17T06:58:54.005Z,101658.66
2023-03-17T06:59:55.925Z,101659.38
2023-03-17T07:00:59.798Z,101643.84
2023-03-17T07:02:01.733Z,101659.16
2023-03-17T07:03:05.752Z,101660.84
2023-03-17T07:04:07.692Z,101657.97
2023-03-17T07:05:09.961Z,101658.81
2023-03-17T07:06:11.767Z,101656.03
2023-03-17T07:07:13.632Z,101662.00
2023-03-17T07:08:15.481Z,101650.47
2023-03-17T07:09:17.626Z,101657.50
2023-03-17T07:10:19.641Z,101638.31
2023-03-17T07:11:23.683Z,101655.47
2023-03-17T07:12:26.071Z,101629.97
2023-03-17T07:13:28.175Z,101648.94
2023-03-17T07:14:30.440Z,101611.50
2023-03-17T07:15:35.024Z,101646.63
2023-03-17T07:16:37.650Z,101650.41
2023-03-17T07:17:39.490Z,101647.00
2023-03-17T07:18:41.364Z,101658.19
2023-03-17T07:19:43.686Z,101656.38
2023-03-17T07:20:46.331Z,101658.91
2023-03-17T07:21:48.197Z,101649.09
2023-03-17T07:22:49.962Z,101649.88
2023-03-17T07:23:51.792Z,101654.34
2023-03-17T07:24:53.863Z,101635.03
2023-03-17T07:25:57.430Z,101634.06
2023-03-17T07:26:59.169Z,101640.78
2023-03-17T07:28:01.075Z,101640.16
2023-03-17T07:29:02.864Z,101646.00
2023-03-17T07:30:05.702Z,101640.66
2023-03-17T07:31:09.602Z,101645.03
2023-03-17T07:32:11.968Z,101632.91
2023-03-17T07:33:14.688Z,101595.19
2023-03-17T07:34:16.748Z,101636.81
2023-03-17T07:35:19.338Z,101634.13
2023-03-17T07:36:21.259Z,101620.53
2023-03-17T07:37:24.053Z,101637.66
2023-03-17T07:38:25.921Z,101633.16
2023-03-17T07:39:27.909Z,101632.19
2023-03-17T07:40:31.661Z,101632.19
2023-03-17T07:41:34.801Z,101632.09
2023-03-17T07:42:38.769Z,101625.28
2023-03-17T07:43:40.580Z,101632.94
2023-03-17T07:44:42.543Z,101631.13
2023-03-17T07:45:45.542Z,101617.63
2023-03-17T07:46:47.552Z,101631.97
2023-03-17T07:47:49.344Z,101632.81
2023-03-17T07:48:51.268Z,101626.63
2023-03-17T07:49:53.520Z,101616.91
2023-03-17T07:50:55.505Z,101622.97
2023-03-17T07:51:57.376Z,101630.03
2023-03-17T07:52:59.287Z,101627.34
2023-03-17T07:54:03.958Z,101620.22
2023-03-17T07:55:12.635Z,101618.38
2023-03-17T07:56:14.480Z,101615.47
2023-03-17T07:57:16.972Z,101617.19
2023-03-17T07:58:18.851Z,101613.78
2023-03-17T07:59:21.179Z,101614.63
2023-03-17T08:00:23.730Z,101619.00
2023-03-17T08:01:26.980Z,101608.66
2023-03-17T08:02:28.915Z,101615.38
2023-03-17T08:03:31.672Z,101611.00
2023-03-17T08:04:34.679Z,101606.50
2023-03-17T08:05:36.520Z,101608.19
2023-03-17T08:06:42.241Z,101613.53
2023-03-17T08:07:44.085Z,101608.19
2023-03-17T08:08:46.279Z,101605.41
2023-03-17T08:09:48.414Z,101600.91
2023-03-17T08:10:51.364Z,101611.59
2023-03-17T08:11:53.190Z,101604.34
2023-03-17T08:12:54.969Z,101613.19
2023-03-17T08:13:56.855Z,101617.56
2023-03-17T08:14:58.699Z,101610.88
2023-03-17T08:16:01.195Z,101623.78
2023-03-17T08:17:03.043Z,101608.59
2023-03-17T08:18:05.027Z,101616.50
2023-03-17T08:19:07.791Z,101601.78
2023-03-17T08:20:11.708Z,101608.50
2023-03-17T08:21:15.772Z,101608.59
2023-03-17T08:22:18.365Z,101605.56
2023-03-17T08:23:20.616Z,101601.94
2023-03-17T08:24:22.471Z,101597.31
2023-03-17T08:25:24.952Z,101598.78
2023-03-17T08:26:27.053Z,101614.31
2023-03-17T08:27:28.905Z,101607.13
2023-03-17T08:28:31.855Z,101597.56
2023-03-17T08:29:33.696Z,101607.88
2023-03-17T08:30:36.297Z,101606.06
2023-03-17T08:31:38.553Z,101589.56
2023-03-17T08:32:41.179Z,101589.06
2023-03-17T08:33:45.661Z,101604.13
2023-03-17T08:34:48.502Z,101594.19
2023-03-17T08:35:50.529Z,101594.19
2023-03-17T08:36:52.644Z,101589.66
2023-03-17T08:37:56.253Z,101594.19
2023-03-17T08:38:59.108Z,101588.69
2023-03-17T08:40:01.351Z,101571.84
2023-03-17T08:41:06.193Z,101585.19
2023-03-17T08:42:08.391Z,101582.38
2023-03-17T08:43:10.197Z,101582.38
2023-03-17T08:44:13.205Z,101578.16
2023-03-17T08:45:16.644Z,101581.56
2023-03-17T08:46:24.438Z,101568.94
2023-03-17T08:47:26.376Z,101581.31
2023-03-17T08:48:28.564Z,101579.59
2023-03-17T08:49:31.672Z,101568.94
2023-03-17T08:50:34.791Z,101571.50
2023-03-17T08:51:37.952Z,101571.69
2023-03-17T08:52:39.759Z,101572.31
2023-03-17T08:53:41.764Z,101572.31
2023-03-17T08:54:43.568Z,101577.66
2023-03-17T08:55:45.337Z,101578.53
2023-03-17T08:56:47.764Z,101575.72
2023-03-17T08:57:49.761Z,101582.03
2023-03-17T08:58:52.015Z,101568.69
2023-03-17T08:59:53.946Z,101570.38
2023-03-17T09:00:59.691Z,101575.00
2023-03-17T09:02:01.594Z,101571.25
2023-03-17T09:03:03.619Z,101554.38
2023-03-17T09:04:05.790Z,101551.69
2023-03-17T09:05:08.250Z,101546.59
2023-03-17T09:06:12.465Z,101550.72
2023-03-17T09:07:15.180Z,101556.94
2023-03-17T09:08:17.449Z,101553.28
2023-03-17T09:09:19.297Z,101560.44
2023-03-17T09:10:22.844Z,101560.44
2023-03-17T09:11:27.551Z,101554.13
2023-03-17T09:12:30.047Z,101559.47
2023-03-17T09:13:33.274Z,101538.69
2023-03-17T09:14:43.498Z,101554.97
2023-03-17T09:15:46.364Z,101550.22
2023-03-17T09:16:48.829Z,101553.03
2023-03-17T09:17:50.955Z,101553.88
2023-03-17T09:18:53.746Z,101557.53
2023-03-17T09:19:55.944Z,101541.13
2023-03-17T09:20:58.120Z,101558.38
2023-03-17T09:22:00.654Z,101560.09
2023-03-17T09:23:09.516Z,101549.50
2023-03-17T09:24:11.580Z,101553.78
2023-03-17T09:25:13.383Z,101547.56
2023-03-17T09:26:15.338Z,101542.22
2023-03-17T09:27:17.153Z,101533.25
2023-03-17T09:28:19.024Z,101541.25
2023-03-17T09:29:20.805Z,101522.41
2023-03-17T09:30:23.004Z,101544.06
2023-03-17T09:31:25.108Z,101537.50
2023-03-17T09:32:27.424Z,101553.88
2023-03-17T09:33:30.177Z,101537.84
2023-03-17T09:34:32.049Z,101545.75
2023-03-17T09:35:34.082Z,101542.22
2023-03-17T09:36:36.265Z,101543.09
2023-03-17T09:37:38.328Z,101548.44
2023-03-17T09:38:40.173Z,101540.41
2023-03-17T09:39:41.933Z,101550.22
2023-03-17T09:41:00.049Z,101534.09
2023-03-17T09:42:33.427Z,101533.72
2023-03-17T09:44:07.884Z,101509.53
2023-03-17T09:45:18.484Z,101504.59
2023-03-17T09:46:54.831Z,101488.56
2023-03-17T09:48:03.066Z,101477.00
2023-03-17T09:49:11.952Z,101471.91
2023-03-17T09:50:23.858Z,101470.47
2023-03-17T09:51:26.624Z,101466.69
2023-03-17T09:52:31.249Z,101459.78
2023-03-17T09:53:50.950Z,101431.00
2023-03-17T09:54:52.808Z,101430.03
2023-03-17T09:55:58.923Z,101436.72
2023-03-17T09:57:10.906Z,101425.03
2023-03-17T09:58:12.973Z,101426.75
2023-03-17T09:59:49.149Z,101417.88
2023-03-17T10:00:51.553Z,101408.41
2023-03-17T10:01:53.404Z,101406.34
2023-03-17T10:02:57.900Z,101419.56
2023-03-17T10:03:59.792Z,101425.16
2023-03-17T10:05:17.736Z,101449.09
2023-03-17T10:06:42.672Z,101448.47
2023-03-17T10:08:01.589Z,101420.94
2023-03-17T10:09:18.429Z,101445.81
2023-03-17T10:10:35.589Z,101453.81
2023-03-17T10:11:47.924Z,101445.91
2023-03-17T10:13:03.224Z,101432.56
2023-03-17T10:14:28.757Z,101422.47
2023-03-17T10:15:48.985Z,101418.84
2023-03-17T10:17:29.111Z,101402.56
2023-03-17T10:18:41.965Z,101398.28
2023-03-17T10:20:19.162Z,101423.22
2023-03-17T10:21:26.000Z,101405.22
2023-03-17T10:22:35.720Z,101403.63
2023-03-17T10:23:37.550Z,101397.56
2023-03-17T10:24:46.880Z,101392.13
2023-03-17T10:25:49.421Z,101406.72
2023-03-17T10:26:53.408Z,101398.91
2023-03-17T10:27:59.928Z,101399.88
2023-03-17T10:29:04.178Z,101414.00
2023-03-17T10:30:15.268Z,101415.69
2023-03-17T10:31:30.847Z,101407.69
2023-03-17T10:32:37.925Z,101390.44
2023-03-17T10:33:40.215Z,101374.38
2023-03-17T10:34:42.938Z,101379.75
2023-03-17T10:35:45.033Z,101376.19
2023-03-17T10:36:51.054Z,101379.13
2023-03-17T10:38:04.318Z,101359.09
2023-03-17T10:39:18.859Z,101379.47
2023-03-17T10:40:22.801Z,101374.97
2023-03-17T10:41:25.233Z,101376.91
2023-03-17T10:42:29.292Z,101383.84
2023-03-17T10:43:38.757Z,101374.13
2023-03-17T10:44:57.076Z,101381.19
2023-03-17T10:46:07.515Z,101378.50
2023-03-17T10:47:28.640Z,101379.81
2023-03-17T10:48:35.906Z,101365.97
2023-03-17T10:49:37.774Z,101379.81
2023-03-17T10:50:41.243Z,101365.16
2023-03-17T10:51:46.710Z,101371.22
2023-03-17T10:52:54.478Z,101354.09
2023-03-17T10:54:00.230Z,101366.59
2023-03-17T10:55:07.023Z,101364.88
2023-03-17T10:56:23.544Z,101349.88
2023-03-17T10:57:25.401Z,101372.50
2023-03-17T10:58:33.237Z,101365.47
2023-03-17T10:59:46.460Z,101356.63
2023-03-17T11:01:02.948Z,101372.38
2023-03-17T11:02:21.050Z,101378.34
2023-03-17T11:03:26.432Z,101369.56
2023-03-17T11:04:37.396Z,101342.66
2023-03-17T11:05:40.380Z,101356.22
2023-03-17T11:06:44.300Z,101360.84
2023-03-17T11:07:46.266Z,101350.16
2023-03-17T11:08:53.911Z,101349.44
2023-03-17T11:10:00.684Z,101353.94
2023-03-17T11:11:07.380Z,101349.31
2023-03-17T11:12:23.911Z,101353.69
2023-03-17T11:13:30.816Z,101324.59
2023-03-17T11:14:33.127Z,101346.38
2023-03-17T11:15:42.411Z,101343.00
2023-03-17T11:17:09.130Z,101341.03
2023-03-17T11:18:34.696Z,101332.75
2023-03-17T11:20:06.853Z,101335.91
2023-03-17T11:21:18.694Z,101340.25
2023-03-17T11:22:23.228Z,101343.19
2023-03-17T11:23:49.130Z,101337.75
2023-03-17T11:25:06.415Z,101337.84
2023-03-17T11:26:27.724Z,101339.28
2023-03-17T11:27:59.421Z,101335.19
2023-03-17T11:29:21.070Z,101319.16
2023-03-17T11:30:37.025Z,101328.38
2023-03-17T11:31:51.867Z,101317.72
2023-03-17T11:33:13.567Z,101322.41
2023-03-17T11:34:29.844Z,101312.56
2023-03-17T11:36:04.037Z,101310.53
2023-03-17T11:37:28.032Z,101307.44
2023-03-17T11:38:33.607Z,101300.66
2023-03-17T11:39:46.281Z,101282.59
2023-03-17T11:40:54.439Z,101274.16
2023-03-17T11:42:16.420Z,101272.25
2023-03-17T11:43:44.012Z,101264.94
2023-03-17T11:44:59.920Z,101266.63
2023-03-17T11:46:11.878Z,101265.19
2023-03-17T11:47:43.114Z,101269.44
2023-03-17T11:48:44.973Z,101271.16
2023-03-17T11:49:58.492Z,101264.38
2023-03-17T11:51:08.376Z,101258.13
2023-03-17T11:52:13.117Z,101259.84
2023-03-17T11:54:09.767Z,101256.19
2023-03-17T11:55:23.512Z,101261.88
2023-03-17T11:56:37.214Z,101257.63
2023-03-17T11:57:48.592Z,101247.91
2023-03-17T11:59:00.586Z,101249.88
2023-03-17T12:00:07.741Z,101221.50
2023-03-17T12:01:29.172Z,101245.50
2023-03-17T12:03:00.285Z,101245.25
2023-03-17T12:04:11.064Z,101241.31
2023-03-17T12:05:23.102Z,101236.41
2023-03-17T12:06:40.857Z,101239.91
2023-03-17T12:07:48.175Z,101226.06
2023-03-17T12:08:56.238Z,101232.84
2023-03-17T12:10:23.058Z,101230.91
2023-03-17T12:11:29.017Z,101221.91
2023-03-17T12:12:38.229Z,101227.50
2023-03-17T12:13:59.544Z,101214.59
2023-03-17T12:15:05.334Z,101220.09
2023-03-17T12:16:29.794Z,101199.59
2023-03-17T12:17:37.597Z,101213.63
2023-03-17T12:18:56.818Z,101216.56
2023-03-17T12:20:06.921Z,101204.88
2023-03-17T12:21:28.386Z,101205.88
2023-03-17T12:22:39.259Z,101202.09